Terminal Aerodrome Forecast
Issued by NWS

Home | Current Version | Previous Version | Text Only | Print | Product List | Glossary On
Versions: 1 2 3 4 5 6 7 8 9 10 11 12 13 14 15 16 17 18 19 20 21 22 23 24 25 26
475
FTUS44 KLZK 172017 AAA
TAFBPK
TAF AMD
KBPK 172017Z 1720/1818 VRB05KT P6SM OVC017
     FM172200 30005KT P6SM SCT025
     FM180100 VRB02KT P6SM FEW250
     FM180800 00000KT 3SM BR SCT001 SCT250=

USA.gov is the U.S. government's official web portal to all federal, state and local government web resources and services.